Latest Weather Observations for Little Bay

IDN60901

Issued at 11:11 pm EST Wednesday 12 August 2020 (issued every 10 minutes, with the page automatically refreshed every 10 minutes)

About weather observations | Map of Sydney area stations | Latest observations for Sydney area | Other Formats
Station Details ID: 066051 Name: LITTLE BAY (THE COAST GOLF CLUB) Lat: -33.98 Lon: 151.25 Height: 22.0 m
Data from the previous 72 hours. | See also: Recent months at Little Bay
Date/Time
EST
Temp
°C
App
Temp
°C
Dew
Point
°C
Rel
Hum
%
Delta-T
°C
Wind Press
QNH
hPa
Press
MSL
hPa
Rain since
9am
mm
Dir  Spd
km/h
Gust
km/h
Spd
kts
Gust
kts
12/11:00pm - - - - - N 4 4 2 2 - - -
12/10:30pm - - - - - N 6 7 3 4 - - -
12/10:00pm - - - - - S 2 4 1 2 - - -
12/09:30pm - - - - - W 4 9 2 5 - - -
12/09:00pm - - - - - NW 9 15 5 8 - - -
12/08:30pm - - - - - NNW 7 15 4 8 - - -
12/08:00pm - - - - - NNE 11 20 6 11 - - -
12/07:30pm - - - - - N 9 13 5 7 - - -
12/07:00pm - - - - - NNE 7 11 4 6 - - -
12/06:30pm - - - - - NNE 7 9 4 5 - - -
12/06:00pm - - - - - NNE 7 9 4 5 - - -
12/05:30pm - - - - - N 9 13 5 7 - - -
12/05:00pm - - - - - NNE 13 19 7 10 - - -
12/04:30pm - - - - - N 11 17 6 9 - - -
12/04:00pm - - - - - N 11 15 6 8 - - -
12/03:30pm - - - - - N 13 20 7 11 - - -
12/03:00pm - - - - - NNE 13 19 7 10 - - -
12/02:30pm - - - - - NNE 13 17 7 9 - - -
12/02:00pm - - - - - NNE 15 19 8 10 - - -
12/01:30pm - - - - - NNE 15 20 8 11 - - -
12/01:00pm - - - - - NNE 15 24 8 13 - - -
12/12:30pm - - - - - NE 17 24 9 13 - - -
12/12:00pm - - - - - NNE 13 19 7 10 - - -
12/11:30am - - - - - NE 11 17 6 9 - - -
12/11:00am - - - - - NE 7 11 4 6 - - -
12/10:30am - - - - - N 4 7 2 4 - - -
12/10:00am - - - - - NW 2 6 1 3 - - -
12/09:30am - - - - - NW 6 9 3 5 - - -
12/09:00am - - - - - NW 6 9 3 5 - - -
12/08:30am - - - - - NNW 4 6 2 3 - - -
12/08:00am - - - - - WNW 7 11 4 6 - - -
12/07:30am - - - - - WNW 7 11 4 6 - - -
12/07:00am - - - - - WNW 9 11 5 6 - - -
12/06:30am - - - - - WNW 7 9 4 5 - - -
12/06:00am - - - - - WNW 9 13 5 7 - - -
12/05:30am - - - - - WNW 11 17 6 9 - - -
12/05:00am - - - - - WNW 11 17 6 9 - - -
12/04:30am - - - - - WNW 11 15 6 8 - - -
12/04:00am - - - - - WNW 13 17 7 9 - - -
12/03:30am - - - - - WNW 11 15 6 8 - - -
12/03:00am - - - - - WNW 9 15 5 8 - - -
12/02:30am - - - - - WNW 11 15 6 8 - - -
12/02:00am - - - - - WNW 9 17 5 9 - - -
12/01:30am - - - - - WNW 9 15 5 8 - - -
12/01:00am - - - - - WNW 9 17 5 9 - - -
12/12:30am - - - - - W 9 17 5 9 - - -
12/12:00am - - - - - N 9 13 5 7 - - -
 
Date/Time
EST
Temp
°C
App
Temp
°C
Dew
Point
°C
Rel
Hum
%
Delta-T
°C
Wind Press
QNH
hPa
Press
MSL
hPa
Rain since
9am
mm
Dir  Spd
km/h
Gust
km/h
Spd
kts
Gust
kts
11/11:30pm - - - - - NNE 9 15 5 8 - - -
11/11:00pm - - - - - NNE 11 17 6 9 - - -
11/10:30pm - - - - - NNE 15 20 8 11 - - -
11/10:00pm - - - - - NE 15 17 8 9 - - -
11/09:30pm - - - - - NNE 7 11 4 6 - - -
11/09:00pm - - - - - NNE 7 11 4 6 - - -
11/08:30pm - - - - - NE 11 15 6 8 - - -
11/08:00pm - - - - - NE 13 17 7 9 - - -
11/07:30pm - - - - - NE 11 15 6 8 - - -
11/07:00pm - - - - - NNE 7 11 4 6 - - -
11/06:30pm - - - - - NNE 9 13 5 7 - - -
11/06:00pm - - - - - NE 11 13 6 7 - - -
11/05:30pm - - - - - NE 9 13 5 7 - - -
11/05:00pm - - - - - ENE 7 11 4 6 - - -
11/04:30pm - - - - - ENE 9 11 5 6 - - -
11/04:00pm - - - - - E 7 9 4 5 - - -
11/03:30pm - - - - - E 7 9 4 5 - - -
11/03:00pm - - - - - ESE 6 7 3 4 - - -
11/02:30pm - - - - - ESE 7 9 4 5 - - -
11/02:00pm - - - - - ESE 7 9 4 5 - - -
11/01:30pm - - - - - SE 6 7 3 4 - - -
11/01:00pm - - - - - SE 6 9 3 5 - - -
11/12:30pm - - - - - WSW 4 7 2 4 - - -
11/12:00pm - - - - - WSW 7 13 4 7 - - -
11/11:30am - - - - - W 6 11 3 6 - - -
11/11:00am - - - - - W 11 15 6 8 - - -
11/10:30am - - - - - W 9 13 5 7 - - -
11/10:00am - - - - - W 7 13 4 7 - - -
11/09:30am - - - - - WNW 11 17 6 9 - - -
11/09:00am - - - - - W 11 15 6 8 - - -
11/08:30am - - - - - W 9 13 5 7 - - -
11/08:00am - - - - - W 9 11 5 6 - - -
11/07:30am - - - - - W 13 17 7 9 - - -
11/07:00am - - - - - W 7 13 4 7 - - -
11/06:30am - - - - - SW 9 15 5 8 - - -
11/06:00am - - - - - SW 9 15 5 8 - - -
11/05:30am - - - - - WSW 9 15 5 8 - - -
11/05:00am - - - - - WSW 11 17 6 9 - - -
11/04:30am - - - - - W 11 22 6 12 - - -
11/04:00am - - - - - W 13 17 7 9 - - -
11/03:30am - - - - - WSW 11 19 6 10 - - -
11/03:00am - - - - - WSW 11 17 6 9 - - -
11/02:30am - - - - - SW 15 22 8 12 - - -
11/02:00am - - - - - SW 13 20 7 11 - - -
11/01:30am - - - - - SW 11 22 6 12 - - -
11/01:00am - - - - - SSW 17 24 9 13 - - -
11/12:30am - - - - - SSW 20 33 11 18 - - -
11/12:00am - - - - - SW 15 20 8 11 - - -
 
Date/Time
EST
Temp
°C
App
Temp
°C
Dew
Point
°C
Rel
Hum
%
Delta-T
°C
Wind Press
QNH
hPa
Press
MSL
hPa
Rain since
9am
mm
Dir  Spd
km/h
Gust
km/h
Spd
kts
Gust
kts
10/11:30pm - - - - - SW 17 28 9 15 - - -
10/11:00pm - - - - - SW 17 24 9 13 - - -
10/10:30pm - - - - - SW 17 26 9 14 - - -
10/10:00pm - - - - - SW 15 26 8 14 - - -
10/09:30pm - - - - - WSW 13 20 7 11 - - -
10/09:00pm - - - - - SSW 20 30 11 16 - - -
10/08:30pm - - - - - S 26 37 14 20 - - -
10/08:00pm - - - - - S 28 39 15 21 - - -
10/07:30pm - - - - - S 24 35 13 19 - - -
10/07:00pm - - - - - S 28 35 15 19 - - -
10/06:30pm - - - - - S 28 39 15 21 - - -
10/06:00pm - - - - - S 32 44 17 24 - - -
10/05:30pm - - - - - S 32 43 17 23 - - -
10/05:00pm - - - - - S 33 46 18 25 - - -
10/04:30pm - - - - - S 35 48 19 26 - - -
10/04:00pm - - - - - S 32 44 17 24 - - -
10/03:30pm - - - - - S 33 46 18 25 - - -
10/03:00pm - - - - - S 37 50 20 27 - - -
10/02:30pm - - - - - S 35 48 19 26 - - -
10/02:00pm - - - - - S 39 54 21 29 - - -
10/01:44pm - - - - - S 37 57 20 31 - - -
10/01:30pm - - - - - S 39 52 21 28 - - -
10/01:01pm - - - - - S 39 57 21 31 - - -
10/01:00pm - - - - - S 37 52 20 28 - - -
10/12:30pm - - - - - S 41 57 22 31 - - -
10/12:00pm - - - - - S 37 52 20 28 - - -
10/11:37am - - - - - S 39 59 21 32 - - -
10/11:30am - - - - - S 39 50 21 27 - - -
10/11:00am - - - - - S 41 56 22 30 - - -
10/10:30am - - - - - SSE 39 57 21 31 - - -
10/10:01am - - - - - S 39 59 21 32 - - -
10/10:00am - - - - - S 39 54 21 29 - - -
10/09:50am - - - - - S 39 57 21 31 - - -
10/09:30am - - - - - SSE 43 59 23 32 - - -
10/09:05am - - - - - SSE 41 61 22 33 - - -
10/09:00am - - - - - SSE 43 56 23 30 - - -
10/08:30am - - - - - S 46 61 25 33 - - -
10/08:05am - - - - - SSE 46 67 25 36 - - -
10/08:00am - - - - - SSE 46 61 25 33 - - -
10/07:34am - - - - - SSE 46 65 25 35 - - -
10/07:30am - - - - - SSE 48 65 26 35 - - -
10/07:05am - - - - - SSE 52 72 28 39 - - -
10/07:00am - - - - - SSE 50 67 27 36 - - -
10/06:31am - - - - - SSE 52 72 28 39 - - -
10/06:30am - - - - - SSE 50 61 27 33 - - -
10/06:09am - - - - - SSE 46 65 25 35 - - -
10/06:00am - - - - - SSE 48 61 26 33 - - -
10/05:34am - - - - - SSE 46 67 25 36 - - -
10/05:30am - - - - - SSE 44 59 24 32 - - -
10/05:00am - - - - - SSE 48 63 26 34 - - -
10/04:30am - - - - - SSE 48 63 26 34 - - -
10/04:00am - - - - - SSE 52 67 28 36 - - -
10/03:30am - - - - - SSE 56 76 30 41 - - -
10/03:00am - - - - - SSE 52 70 28 38 - - -
10/02:30am - - - - - SSE 44 65 24 35 - - -
10/02:00am - - - - - SSE 39 61 21 33 - - -
10/01:56am - - - - - SSE 37 61 20 33 - - -
10/01:30am - - - - - SSE 46 54 25 29 - - -
10/01:08am - - - - - SSE 39 57 21 31 - - -
10/01:00am - - - - - SSE 48 61 26 33 - - -
10/12:30am - - - - - SE 43 54 23 29 - - -
10/12:00am - - - - - SE 43 54 23 29 - - -
 
Date/Time
EST
Temp
°C
App
Temp
°C
Dew
Point
°C
Rel
Hum
%
Delta-T
°C
Wind Press
QNH
hPa
Press
MSL
hPa
Rain since
9am
mm
Dir  Spd
km/h
Gust
km/h
Spd
kts
Gust
kts
09/11:30pm - - - - - SSE 35 46 19 25 - - -

Latest Capital City Observations: Canberra | Sydney | Melbourne | Brisbane | Adelaide | Perth | Hobart | Darwin

Other formats

Comma delimited format used in spreadsheet applications
http://www.bom.gov.au/fwo/IDN60901/IDN60901.94780.axf

JavaScript Object Notation format (JSON) in row-major order
http://www.bom.gov.au/fwo/IDN60901/IDN60901.94780.json

Data quality

Most of these data are generated automatically and are frequently updated. Quality checks on data are not normally performed. It is possible for incorrect values to appear. Refer to information at About Latest Weather Observations and please check the disclaimer before using these data.